sensor_id;sensor_type;location;lat;lon;timestamp;P1;durP1;ratioP1;P2;durP2;ratioP2
73487;SDS011;61721;42.206;25.320;2022-12-13T00:02:11;1.90;;;0.80;;
73487;SDS011;61721;42.206;25.320;2022-12-13T00:04:38;1.73;;;0.70;;
73487;SDS011;61721;42.206;25.320;2022-12-13T00:07:06;2.70;;;1.00;;
73487;SDS011;61721;42.206;25.320;2022-12-13T00:09:33;1.63;;;0.70;;
73487;SDS011;61721;42.206;25.320;2022-12-13T00:12:00;1.63;;;0.82;;
73487;SDS011;61721;42.206;25.320;2022-12-13T00:14:27;1.90;;;0.98;;
73487;SDS011;61721;42.206;25.320;2022-12-13T00:16:56;1.60;;;0.80;;
73487;SDS011;61721;42.206;25.320;2022-12-13T00:19:23;2.50;;;1.30;;
73487;SDS011;61721;42.206;25.320;2022-12-13T00:21:50;2.50;;;0.93;;
73487;SDS011;61721;42.206;25.320;2022-12-13T00:24:17;2.10;;;1.00;;
73487;SDS011;61721;42.206;25.320;2022-12-13T00:26:44;1.90;;;0.90;;
73487;SDS011;61721;42.206;25.320;2022-12-13T00:29:11;2.20;;;1.25;;
73487;SDS011;61721;42.206;25.320;2022-12-13T00:31:39;1.80;;;0.82;;
73487;SDS011;61721;42.206;25.320;2022-12-13T00:34:07;1.48;;;0.75;;
73487;SDS011;61721;42.206;25.320;2022-12-13T00:36:35;2.80;;;0.90;;
73487;SDS011;61721;42.206;25.320;2022-12-13T00:39:02;1.98;;;0.90;;
73487;SDS011;61721;42.206;25.320;2022-12-13T00:41:30;2.20;;;0.90;;
73487;SDS011;61721;42.206;25.320;2022-12-13T00:43:59;2.50;;;1.40;;
73487;SDS011;61721;42.206;25.320;2022-12-13T00:46:27;1.95;;;0.88;;
73487;SDS011;61721;42.206;25.320;2022-12-13T00:48:56;2.45;;;1.40;;
73487;SDS011;61721;42.206;25.320;2022-12-13T00:51:25;2.70;;;1.10;;
73487;SDS011;61721;42.206;25.320;2022-12-13T00:53:54;2.83;;;1.63;;
73487;SDS011;61721;42.206;25.320;2022-12-13T00:56:22;2.53;;;1.40;;
73487;SDS011;61721;42.206;25.320;2022-12-13T00:58:51;2.97;;;1.40;;
73487;SDS011;61721;42.206;25.320;2022-12-13T01:01:19;2.60;;;1.30;;
73487;SDS011;61721;42.206;25.320;2022-12-13T01:03:49;2.33;;;1.10;;
73487;SDS011;61721;42.206;25.320;2022-12-13T01:06:17;1.92;;;1.00;;
73487;SDS011;61721;42.206;25.320;2022-12-13T01:08:47;2.10;;;1.20;;
73487;SDS011;61721;42.206;25.320;2022-12-13T01:11:15;2.65;;;1.40;;
73487;SDS011;61721;42.206;25.320;2022-12-13T01:13:43;2.72;;;1.40;;
73487;SDS011;61721;42.206;25.320;2022-12-13T01:16:11;2.63;;;1.20;;
73487;SDS011;61721;42.206;25.320;2022-12-13T01:18:39;3.00;;;1.25;;
73487;SDS011;61721;42.206;25.320;2022-12-13T01:21:07;2.65;;;1.40;;
73487;SDS011;61721;42.206;25.320;2022-12-13T01:23:36;2.65;;;1.92;;
73487;SDS011;61721;42.206;25.320;2022-12-13T01:26:06;2.35;;;1.30;;
73487;SDS011;61721;42.206;25.320;2022-12-13T01:28:35;3.70;;;1.00;;
73487;SDS011;61721;42.206;25.320;2022-12-13T01:31:02;2.83;;;1.33;;
73487;SDS011;61721;42.206;25.320;2022-12-13T01:33:31;1.65;;;0.90;;
73487;SDS011;61721;42.206;25.320;2022-12-13T01:35:59;2.65;;;1.27;;
73487;SDS011;61721;42.206;25.320;2022-12-13T01:38:27;2.65;;;1.05;;
73487;SDS011;61721;42.206;25.320;2022-12-13T01:40:55;3.35;;;1.25;;
73487;SDS011;61721;42.206;25.320;2022-12-13T01:43:26;2.20;;;0.93;;
73487;SDS011;61721;42.206;25.320;2022-12-13T01:45:55;2.72;;;1.55;;
73487;SDS011;61721;42.206;25.320;2022-12-13T01:48:23;2.33;;;1.20;;
73487;SDS011;61721;42.206;25.320;2022-12-13T01:50:54;2.33;;;0.95;;
73487;SDS011;61721;42.206;25.320;2022-12-13T01:53:30;2.17;;;1.00;;
73487;SDS011;61721;42.206;25.320;2022-12-13T01:56:01;2.00;;;1.15;;
73487;SDS011;61721;42.206;25.320;2022-12-13T01:58:35;2.38;;;1.10;;
73487;SDS011;61721;42.206;25.320;2022-12-13T02:01:04;3.10;;;1.42;;
73487;SDS011;61721;42.206;25.320;2022-12-13T02:03:31;2.78;;;1.45;;
73487;SDS011;61721;42.206;25.320;2022-12-13T02:06:02;3.17;;;1.40;;
73487;SDS011;61721;42.206;25.320;2022-12-13T02:08:33;2.90;;;1.70;;
73487;SDS011;61721;42.206;25.320;2022-12-13T02:11:00;3.28;;;1.85;;
73487;SDS011;61721;42.206;25.320;2022-12-13T02:13:28;2.80;;;1.55;;
73487;SDS011;61721;42.206;25.320;2022-12-13T02:15:59;4.80;;;1.75;;
73487;SDS011;61721;42.206;25.320;2022-12-13T02:18:50;2.75;;;1.50;;
73487;SDS011;61721;42.206;25.320;2022-12-13T02:21:31;3.97;;;1.63;;
73487;SDS011;61721;42.206;25.320;2022-12-13T02:24:10;3.40;;;1.60;;
73487;SDS011;61721;42.206;25.320;2022-12-13T02:26:57;3.85;;;2.10;;
73487;SDS011;61721;42.206;25.320;2022-12-13T02:32:38;3.95;;;1.67;;
73487;SDS011;61721;42.206;25.320;2022-12-13T02:35:13;3.75;;;2.22;;
73487;SDS011;61721;42.206;25.320;2022-12-13T02:37:47;3.83;;;2.10;;
73487;SDS011;61721;42.206;25.320;2022-12-13T02:40:24;3.90;;;2.72;;
73487;SDS011;61721;42.206;25.320;2022-12-13T02:42:56;4.03;;;2.35;;
73487;SDS011;61721;42.206;25.320;2022-12-13T02:45:32;3.47;;;2.25;;
73487;SDS011;61721;42.206;25.320;2022-12-13T02:48:06;4.45;;;2.58;;
73487;SDS011;61721;42.206;25.320;2022-12-13T02:50:36;4.13;;;2.78;;
73487;SDS011;61721;42.206;25.320;2022-12-13T02:53:05;3.25;;;2.17;;
73487;SDS011;61721;42.206;25.320;2022-12-13T02:55:36;3.67;;;2.50;;
73487;SDS011;61721;42.206;25.320;2022-12-13T02:58:04;4.10;;;2.03;;
73487;SDS011;61721;42.206;25.320;2022-12-13T03:00:34;3.45;;;1.92;;
73487;SDS011;61721;42.206;25.320;2022-12-13T03:03:14;4.88;;;2.60;;
73487;SDS011;61721;42.206;25.320;2022-12-13T03:05:52;5.60;;;3.28;;
73487;SDS011;61721;42.206;25.320;2022-12-13T03:08:46;4.93;;;3.15;;
73487;SDS011;61721;42.206;25.320;2022-12-13T03:11:21;4.40;;;2.67;;
73487;SDS011;61721;42.206;25.320;2022-12-13T03:13:53;4.53;;;2.22;;
73487;SDS011;61721;42.206;25.320;2022-12-13T03:16:23;4.05;;;2.42;;
73487;SDS011;61721;42.206;25.320;2022-12-13T03:18:58;4.25;;;2.60;;
73487;SDS011;61721;42.206;25.320;2022-12-13T03:21:27;4.55;;;2.47;;
73487;SDS011;61721;42.206;25.320;2022-12-13T03:23:55;4.40;;;2.95;;
73487;SDS011;61721;42.206;25.320;2022-12-13T03:26:23;5.25;;;2.75;;
73487;SDS011;61721;42.206;25.320;2022-12-13T03:28:52;4.18;;;2.70;;
73487;SDS011;61721;42.206;25.320;2022-12-13T03:31:19;5.93;;;2.33;;
73487;SDS011;61721;42.206;25.320;2022-12-13T03:33:47;4.38;;;2.50;;
73487;SDS011;61721;42.206;25.320;2022-12-13T03:36:16;4.82;;;2.58;;
73487;SDS011;61721;42.206;25.320;2022-12-13T03:38:44;7.07;;;3.45;;
73487;SDS011;61721;42.206;25.320;2022-12-13T03:41:13;5.65;;;2.65;;
73487;SDS011;61721;42.206;25.320;2022-12-13T03:43:43;4.65;;;2.50;;
73487;SDS011;61721;42.206;25.320;2022-12-13T03:46:10;4.03;;;2.42;;
73487;SDS011;61721;42.206;25.320;2022-12-13T03:48:37;4.75;;;2.50;;
73487;SDS011;61721;42.206;25.320;2022-12-13T03:51:05;5.30;;;2.67;;
73487;SDS011;61721;42.206;25.320;2022-12-13T03:53:33;5.43;;;2.33;;
73487;SDS011;61721;42.206;25.320;2022-12-13T03:56:01;4.50;;;2.28;;
73487;SDS011;61721;42.206;25.320;2022-12-13T03:58:30;3.88;;;2.40;;
73487;SDS011;61721;42.206;25.320;2022-12-13T04:00:58;3.50;;;1.85;;
73487;SDS011;61721;42.206;25.320;2022-12-13T04:03:25;3.28;;;1.80;;
73487;SDS011;61721;42.206;25.320;2022-12-13T04:05:52;5.20;;;2.80;;
73487;SDS011;61721;42.206;25.320;2022-12-13T04:08:19;5.15;;;2.78;;
73487;SDS011;61721;42.206;25.320;2022-12-13T04:10:48;5.70;;;2.70;;
73487;SDS011;61721;42.206;25.320;2022-12-13T04:13:15;3.67;;;2.40;;
73487;SDS011;61721;42.206;25.320;2022-12-13T04:15:59;4.65;;;2.92;;
73487;SDS011;61721;42.206;25.320;2022-12-13T04:18:27;5.68;;;2.83;;
73487;SDS011;61721;42.206;25.320;2022-12-13T04:20:54;5.10;;;2.95;;
73487;SDS011;61721;42.206;25.320;2022-12-13T04:23:22;4.90;;;2.80;;
73487;SDS011;61721;42.206;25.320;2022-12-13T04:25:51;4.72;;;2.83;;
73487;SDS011;61721;42.206;25.320;2022-12-13T04:28:18;5.15;;;2.60;;
73487;SDS011;61721;42.206;25.320;2022-12-13T04:30:46;4.45;;;2.30;;
73487;SDS011;61721;42.206;25.320;2022-12-13T04:33:13;4.60;;;2.67;;
73487;SDS011;61721;42.206;25.320;2022-12-13T04:35:40;5.22;;;3.13;;
73487;SDS011;61721;42.206;25.320;2022-12-13T04:38:08;4.78;;;3.17;;
73487;SDS011;61721;42.206;25.320;2022-12-13T04:40:35;4.63;;;2.65;;
73487;SDS011;61721;42.206;25.320;2022-12-13T04:43:03;4.15;;;2.60;;
73487;SDS011;61721;42.206;25.320;2022-12-13T04:45:31;4.45;;;2.70;;
73487;SDS011;61721;42.206;25.320;2022-12-13T04:47:58;4.88;;;3.00;;
73487;SDS011;61721;42.206;25.320;2022-12-13T04:50:26;4.68;;;2.65;;
73487;SDS011;61721;42.206;25.320;2022-12-13T04:52:54;4.25;;;2.72;;
73487;SDS011;61721;42.206;25.320;2022-12-13T04:55:24;6.13;;;2.92;;
73487;SDS011;61721;42.206;25.320;2022-12-13T04:57:51;4.35;;;2.90;;
73487;SDS011;61721;42.206;25.320;2022-12-13T05:00:20;4.40;;;2.30;;
73487;SDS011;61721;42.206;25.320;2022-12-13T05:02:47;5.20;;;2.90;;
73487;SDS011;61721;42.206;25.320;2022-12-13T05:05:14;5.20;;;2.97;;
73487;SDS011;61721;42.206;25.320;2022-12-13T05:07:41;4.65;;;2.90;;
73487;SDS011;61721;42.206;25.320;2022-12-13T05:10:09;5.13;;;3.10;;
73487;SDS011;61721;42.206;25.320;2022-12-13T05:12:36;4.97;;;2.78;;
73487;SDS011;61721;42.206;25.320;2022-12-13T05:15:03;4.75;;;2.72;;
73487;SDS011;61721;42.206;25.320;2022-12-13T05:17:32;4.47;;;2.90;;
73487;SDS011;61721;42.206;25.320;2022-12-13T05:20:00;5.05;;;2.88;;
73487;SDS011;61721;42.206;25.320;2022-12-13T05:22:27;5.03;;;2.45;;
73487;SDS011;61721;42.206;25.320;2022-12-13T05:24:54;4.63;;;2.63;;
73487;SDS011;61721;42.206;25.320;2022-12-13T05:27:21;4.50;;;1.95;;
73487;SDS011;61721;42.206;25.320;2022-12-13T05:29:50;4.97;;;3.08;;
73487;SDS011;61721;42.206;25.320;2022-12-13T05:32:17;4.78;;;2.95;;
73487;SDS011;61721;42.206;25.320;2022-12-13T05:34:46;5.15;;;3.35;;
73487;SDS011;61721;42.206;25.320;2022-12-13T05:37:14;6.82;;;2.90;;
73487;SDS011;61721;42.206;25.320;2022-12-13T05:39:41;6.97;;;3.20;;
73487;SDS011;61721;42.206;25.320;2022-12-13T05:42:08;5.45;;;3.47;;
73487;SDS011;61721;42.206;25.320;2022-12-13T05:44:35;5.75;;;3.65;;
73487;SDS011;61721;42.206;25.320;2022-12-13T05:47:03;4.90;;;3.08;;
73487;SDS011;61721;42.206;25.320;2022-12-13T05:49:30;6.30;;;4.15;;
73487;SDS011;61721;42.206;25.320;2022-12-13T05:52:00;7.07;;;4.22;;
73487;SDS011;61721;42.206;25.320;2022-12-13T05:54:27;8.65;;;5.13;;
73487;SDS011;61721;42.206;25.320;2022-12-13T05:56:54;7.88;;;4.97;;
73487;SDS011;61721;42.206;25.320;2022-12-13T05:59:21;7.25;;;4.85;;
73487;SDS011;61721;42.206;25.320;2022-12-13T06:01:48;17.02;;;8.98;;
73487;SDS011;61721;42.206;25.320;2022-12-13T06:04:16;22.95;;;13.40;;
73487;SDS011;61721;42.206;25.320;2022-12-13T06:06:43;25.58;;;13.05;;
73487;SDS011;61721;42.206;25.320;2022-12-13T06:09:11;19.83;;;11.65;;
73487;SDS011;61721;42.206;25.320;2022-12-13T06:11:38;18.13;;;10.68;;
73487;SDS011;61721;42.206;25.320;2022-12-13T06:14:06;10.73;;;6.05;;
73487;SDS011;61721;42.206;25.320;2022-12-13T06:16:33;6.95;;;4.22;;
73487;SDS011;61721;42.206;25.320;2022-12-13T06:19:01;5.47;;;3.72;;
73487;SDS011;61721;42.206;25.320;2022-12-13T06:21:28;8.82;;;4.78;;
73487;SDS011;61721;42.206;25.320;2022-12-13T06:23:56;5.38;;;3.72;;
73487;SDS011;61721;42.206;25.320;2022-12-13T06:26:24;8.35;;;4.43;;
73487;SDS011;61721;42.206;25.320;2022-12-13T06:28:51;7.88;;;4.78;;
73487;SDS011;61721;42.206;25.320;2022-12-13T06:31:19;8.63;;;5.32;;
73487;SDS011;61721;42.206;25.320;2022-12-13T06:33:46;11.57;;;5.15;;
73487;SDS011;61721;42.206;25.320;2022-12-13T06:36:13;10.02;;;5.50;;
73487;SDS011;61721;42.206;25.320;2022-12-13T06:38:40;8.85;;;4.72;;
73487;SDS011;61721;42.206;25.320;2022-12-13T06:41:08;16.80;;;8.50;;
73487;SDS011;61721;42.206;25.320;2022-12-13T06:43:37;12.95;;;6.40;;
73487;SDS011;61721;42.206;25.320;2022-12-13T06:46:06;15.25;;;7.63;;
73487;SDS011;61721;42.206;25.320;2022-12-13T06:48:34;9.15;;;5.50;;
73487;SDS011;61721;42.206;25.320;2022-12-13T06:51:01;7.68;;;4.55;;
73487;SDS011;61721;42.206;25.320;2022-12-13T06:53:29;5.93;;;3.38;;
73487;SDS011;61721;42.206;25.320;2022-12-13T06:56:01;9.00;;;5.22;;
73487;SDS011;61721;42.206;25.320;2022-12-13T06:58:29;10.45;;;4.40;;
73487;SDS011;61721;42.206;25.320;2022-12-13T07:01:01;6.53;;;3.97;;
73487;SDS011;61721;42.206;25.320;2022-12-13T07:03:29;5.72;;;3.58;;
73487;SDS011;61721;42.206;25.320;2022-12-13T07:05:56;7.35;;;4.40;;
73487;SDS011;61721;42.206;25.320;2022-12-13T07:08:24;8.18;;;4.70;;
73487;SDS011;61721;42.206;25.320;2022-12-13T07:10:53;6.45;;;3.95;;
73487;SDS011;61721;42.206;25.320;2022-12-13T07:13:22;5.53;;;3.75;;
73487;SDS011;61721;42.206;25.320;2022-12-13T07:15:49;5.97;;;3.70;;
73487;SDS011;61721;42.206;25.320;2022-12-13T07:18:18;6.13;;;3.80;;
73487;SDS011;61721;42.206;25.320;2022-12-13T07:20:45;5.68;;;3.50;;
73487;SDS011;61721;42.206;25.320;2022-12-13T07:23:12;6.70;;;3.58;;
73487;SDS011;61721;42.206;25.320;2022-12-13T07:25:39;5.55;;;2.50;;
73487;SDS011;61721;42.206;25.320;2022-12-13T07:28:07;4.55;;;2.78;;
73487;SDS011;61721;42.206;25.320;2022-12-13T07:30:37;4.75;;;2.65;;
73487;SDS011;61721;42.206;25.320;2022-12-13T07:33:05;5.63;;;2.83;;
73487;SDS011;61721;42.206;25.320;2022-12-13T07:35:33;6.35;;;3.63;;
73487;SDS011;61721;42.206;25.320;2022-12-13T07:38:01;8.00;;;3.92;;
73487;SDS011;61721;42.206;25.320;2022-12-13T07:40:28;5.80;;;3.72;;
73487;SDS011;61721;42.206;25.320;2022-12-13T07:42:55;9.25;;;4.72;;
73487;SDS011;61721;42.206;25.320;2022-12-13T07:45:22;9.70;;;5.07;;
73487;SDS011;61721;42.206;25.320;2022-12-13T07:47:50;8.50;;;4.28;;
73487;SDS011;61721;42.206;25.320;2022-12-13T07:50:17;7.57;;;4.53;;
73487;SDS011;61721;42.206;25.320;2022-12-13T07:52:46;7.00;;;4.22;;
73487;SDS011;61721;42.206;25.320;2022-12-13T07:55:14;10.27;;;5.57;;
73487;SDS011;61721;42.206;25.320;2022-12-13T07:57:42;6.10;;;3.80;;
73487;SDS011;61721;42.206;25.320;2022-12-13T08:00:10;8.35;;;4.18;;
73487;SDS011;61721;42.206;25.320;2022-12-13T08:02:39;5.78;;;3.47;;
73487;SDS011;61721;42.206;25.320;2022-12-13T08:05:07;5.93;;;4.20;;
73487;SDS011;61721;42.206;25.320;2022-12-13T08:07:35;7.32;;;4.15;;
73487;SDS011;61721;42.206;25.320;2022-12-13T08:10:03;6.43;;;3.75;;
73487;SDS011;61721;42.206;25.320;2022-12-13T08:12:31;8.65;;;4.30;;
73487;SDS011;61721;42.206;25.320;2022-12-13T08:14:59;6.82;;;4.20;;
73487;SDS011;61721;42.206;25.320;2022-12-13T08:17:26;6.15;;;3.05;;
73487;SDS011;61721;42.206;25.320;2022-12-13T08:19:53;8.80;;;4.32;;
73487;SDS011;61721;42.206;25.320;2022-12-13T08:22:21;8.68;;;4.38;;
73487;SDS011;61721;42.206;25.320;2022-12-13T08:24:48;5.28;;;2.78;;
73487;SDS011;61721;42.206;25.320;2022-12-13T08:27:16;7.05;;;3.83;;
73487;SDS011;61721;42.206;25.320;2022-12-13T08:29:44;7.65;;;3.90;;
73487;SDS011;61721;42.206;25.320;2022-12-13T08:32:11;5.82;;;3.30;;
73487;SDS011;61721;42.206;25.320;2022-12-13T08:34:39;12.77;;;6.38;;
73487;SDS011;61721;42.206;25.320;2022-12-13T08:37:06;8.48;;;3.83;;
73487;SDS011;61721;42.206;25.320;2022-12-13T08:39:34;6.75;;;3.90;;
73487;SDS011;61721;42.206;25.320;2022-12-13T08:42:02;7.75;;;4.03;;
73487;SDS011;61721;42.206;25.320;2022-12-13T08:44:35;8.90;;;4.90;;
73487;SDS011;61721;42.206;25.320;2022-12-13T08:47:02;5.97;;;3.10;;
73487;SDS011;61721;42.206;25.320;2022-12-13T08:49:30;5.75;;;3.75;;
73487;SDS011;61721;42.206;25.320;2022-12-13T08:51:57;6.75;;;4.38;;
73487;SDS011;61721;42.206;25.320;2022-12-13T08:54:24;7.65;;;3.88;;
73487;SDS011;61721;42.206;25.320;2022-12-13T08:56:51;7.38;;;4.13;;
73487;SDS011;61721;42.206;25.320;2022-12-13T08:59:19;8.73;;;4.43;;
73487;SDS011;61721;42.206;25.320;2022-12-13T09:01:50;7.85;;;4.10;;
73487;SDS011;61721;42.206;25.320;2022-12-13T09:04:17;9.25;;;4.45;;
73487;SDS011;61721;42.206;25.320;2022-12-13T09:06:44;8.10;;;4.10;;
73487;SDS011;61721;42.206;25.320;2022-12-13T09:09:12;7.05;;;3.92;;
73487;SDS011;61721;42.206;25.320;2022-12-13T09:11:39;6.43;;;3.85;;
73487;SDS011;61721;42.206;25.320;2022-12-13T09:14:06;7.68;;;4.00;;
73487;SDS011;61721;42.206;25.320;2022-12-13T09:16:33;10.13;;;4.43;;
73487;SDS011;61721;42.206;25.320;2022-12-13T09:19:02;6.50;;;3.55;;
73487;SDS011;61721;42.206;25.320;2022-12-13T09:21:32;10.02;;;4.53;;
73487;SDS011;61721;42.206;25.320;2022-12-13T09:23:59;8.15;;;4.03;;
73487;SDS011;61721;42.206;25.320;2022-12-13T09:26:27;9.90;;;4.80;;
73487;SDS011;61721;42.206;25.320;2022-12-13T09:28:54;11.90;;;5.00;;
73487;SDS011;61721;42.206;25.320;2022-12-13T09:31:21;18.25;;;6.63;;
73487;SDS011;61721;42.206;25.320;2022-12-13T09:33:50;7.70;;;3.75;;
73487;SDS011;61721;42.206;25.320;2022-12-13T09:36:19;9.65;;;4.70;;
73487;SDS011;61721;42.206;25.320;2022-12-13T09:38:47;5.15;;;3.10;;
73487;SDS011;61721;42.206;25.320;2022-12-13T09:41:16;7.20;;;5.25;;
73487;SDS011;61721;42.206;25.320;2022-12-13T09:43:48;5.63;;;3.47;;
73487;SDS011;61721;42.206;25.320;2022-12-13T09:46:26;10.32;;;3.45;;
73487;SDS011;61721;42.206;25.320;2022-12-13T09:48:58;5.90;;;3.35;;
73487;SDS011;61721;42.206;25.320;2022-12-13T09:51:30;6.00;;;3.22;;
73487;SDS011;61721;42.206;25.320;2022-12-13T09:53:58;6.07;;;3.40;;
73487;SDS011;61721;42.206;25.320;2022-12-13T09:56:26;7.90;;;3.85;;
73487;SDS011;61721;42.206;25.320;2022-12-13T09:58:54;6.60;;;3.58;;
73487;SDS011;61721;42.206;25.320;2022-12-13T10:01:23;4.80;;;2.70;;
73487;SDS011;61721;42.206;25.320;2022-12-13T10:03:51;6.25;;;3.55;;
73487;SDS011;61721;42.206;25.320;2022-12-13T10:06:20;5.28;;;2.70;;
73487;SDS011;61721;42.206;25.320;2022-12-13T10:08:55;6.43;;;3.30;;
73487;SDS011;61721;42.206;25.320;2022-12-13T10:11:25;6.00;;;3.63;;
73487;SDS011;61721;42.206;25.320;2022-12-13T10:13:55;5.88;;;2.92;;
73487;SDS011;61721;42.206;25.320;2022-12-13T10:16:29;5.78;;;3.70;;
73487;SDS011;61721;42.206;25.320;2022-12-13T10:19:11;6.85;;;3.85;;
73487;SDS011;61721;42.206;25.320;2022-12-13T10:21:43;7.63;;;5.55;;
73487;SDS011;61721;42.206;25.320;2022-12-13T10:26:44;4.78;;;2.53;;
73487;SDS011;61721;42.206;25.320;2022-12-13T10:29:12;5.30;;;2.90;;
73487;SDS011;61721;42.206;25.320;2022-12-13T10:31:39;6.10;;;3.22;;
73487;SDS011;61721;42.206;25.320;2022-12-13T10:34:20;7.55;;;3.40;;
73487;SDS011;61721;42.206;25.320;2022-12-13T10:36:49;5.97;;;3.20;;
73487;SDS011;61721;42.206;25.320;2022-12-13T10:39:19;5.32;;;2.63;;
73487;SDS011;61721;42.206;25.320;2022-12-13T10:42:04;5.75;;;2.80;;
73487;SDS011;61721;42.206;25.320;2022-12-13T10:44:32;5.13;;;2.92;;
73487;SDS011;61721;42.206;25.320;2022-12-13T10:47:03;6.40;;;3.20;;
73487;SDS011;61721;42.206;25.320;2022-12-13T10:49:40;5.53;;;3.13;;
73487;SDS011;61721;42.206;25.320;2022-12-13T10:52:22;7.82;;;4.47;;
73487;SDS011;61721;42.206;25.320;2022-12-13T10:54:53;9.32;;;4.57;;
73487;SDS011;61721;42.206;25.320;2022-12-13T10:57:22;6.25;;;3.65;;
73487;SDS011;61721;42.206;25.320;2022-12-13T10:59:50;7.53;;;3.60;;
73487;SDS011;61721;42.206;25.320;2022-12-13T11:02:28;6.43;;;3.83;;
73487;SDS011;61721;42.206;25.320;2022-12-13T11:04:59;6.80;;;3.78;;
73487;SDS011;61721;42.206;25.320;2022-12-13T11:07:41;6.63;;;3.67;;
73487;SDS011;61721;42.206;25.320;2022-12-13T11:10:17;7.28;;;4.60;;
73487;SDS011;61721;42.206;25.320;2022-12-13T11:12:49;7.90;;;5.53;;
73487;SDS011;61721;42.206;25.320;2022-12-13T11:15:17;7.57;;;4.32;;
73487;SDS011;61721;42.206;25.320;2022-12-13T11:17:46;7.82;;;4.82;;
73487;SDS011;61721;42.206;25.320;2022-12-13T11:20:17;8.30;;;5.20;;
73487;SDS011;61721;42.206;25.320;2022-12-13T11:22:47;8.63;;;5.00;;
73487;SDS011;61721;42.206;25.320;2022-12-13T11:25:26;8.55;;;4.78;;
73487;SDS011;61721;42.206;25.320;2022-12-13T11:27:59;18.58;;;7.97;;
73487;SDS011;61721;42.206;25.320;2022-12-13T11:30:37;9.30;;;4.95;;
73487;SDS011;61721;42.206;25.320;2022-12-13T11:33:15;11.80;;;5.90;;
73487;SDS011;61721;42.206;25.320;2022-12-13T11:35:57;6.75;;;3.92;;
73487;SDS011;61721;42.206;25.320;2022-12-13T11:38:33;7.25;;;3.80;;
73487;SDS011;61721;42.206;25.320;2022-12-13T11:41:11;6.40;;;3.60;;
73487;SDS011;61721;42.206;25.320;2022-12-13T11:43:43;9.20;;;3.95;;
73487;SDS011;61721;42.206;25.320;2022-12-13T11:46:18;7.55;;;4.22;;
73487;SDS011;61721;42.206;25.320;2022-12-13T11:48:52;10.13;;;4.40;;
73487;SDS011;61721;42.206;25.320;2022-12-13T11:51:24;7.43;;;3.90;;
73487;SDS011;61721;42.206;25.320;2022-12-13T11:53:57;7.85;;;3.85;;
73487;SDS011;61721;42.206;25.320;2022-12-13T11:56:32;7.40;;;3.80;;
73487;SDS011;61721;42.206;25.320;2022-12-13T11:59:04;7.57;;;3.92;;
73487;SDS011;61721;42.206;25.320;2022-12-13T12:01:37;6.45;;;3.90;;
73487;SDS011;61721;42.206;25.320;2022-12-13T12:04:13;6.65;;;3.67;;
73487;SDS011;61721;42.206;25.320;2022-12-13T12:06:47;5.20;;;3.35;;
73487;SDS011;61721;42.206;25.320;2022-12-13T12:09:20;6.25;;;3.60;;
73487;SDS011;61721;42.206;25.320;2022-12-13T12:11:52;7.40;;;3.75;;
73487;SDS011;61721;42.206;25.320;2022-12-13T12:14:30;44.53;;;22.38;;
73487;SDS011;61721;42.206;25.320;2022-12-13T12:17:03;8.20;;;5.22;;
73487;SDS011;61721;42.206;25.320;2022-12-13T12:19:33;6.55;;;3.78;;
73487;SDS011;61721;42.206;25.320;2022-12-13T12:22:07;8.40;;;5.15;;
73487;SDS011;61721;42.206;25.320;2022-12-13T12:24:46;6.13;;;3.55;;
73487;SDS011;61721;42.206;25.320;2022-12-13T12:27:26;7.13;;;3.78;;
73487;SDS011;61721;42.206;25.320;2022-12-13T12:30:14;6.93;;;4.20;;
73487;SDS011;61721;42.206;25.320;2022-12-13T12:32:46;5.85;;;3.53;;
73487;SDS011;61721;42.206;25.320;2022-12-13T12:35:20;6.63;;;3.78;;
73487;SDS011;61721;42.206;25.320;2022-12-13T12:38:08;7.90;;;4.03;;
73487;SDS011;61721;42.206;25.320;2022-12-13T12:40:52;5.97;;;3.33;;
73487;SDS011;61721;42.206;25.320;2022-12-13T12:43:33;6.90;;;4.50;;
73487;SDS011;61721;42.206;25.320;2022-12-13T12:46:07;5.70;;;3.65;;
73487;SDS011;61721;42.206;25.320;2022-12-13T12:49:04;6.88;;;4.70;;
73487;SDS011;61721;42.206;25.320;2022-12-13T12:51:50;6.93;;;5.18;;
73487;SDS011;61721;42.206;25.320;2022-12-13T12:54:29;6.57;;;4.25;;
73487;SDS011;61721;42.206;25.320;2022-12-13T12:57:07;6.28;;;3.78;;
73487;SDS011;61721;42.206;25.320;2022-12-13T12:59:45;5.80;;;3.97;;
73487;SDS011;61721;42.206;25.320;2022-12-13T13:02:22;8.63;;;4.75;;
73487;SDS011;61721;42.206;25.320;2022-12-13T13:04:57;7.82;;;4.82;;
73487;SDS011;61721;42.206;25.320;2022-12-13T13:07:29;6.65;;;4.15;;
73487;SDS011;61721;42.206;25.320;2022-12-13T13:10:00;6.25;;;4.10;;
73487;SDS011;61721;42.206;25.320;2022-12-13T13:12:29;6.78;;;4.57;;
73487;SDS011;61721;42.206;25.320;2022-12-13T13:17:47;5.38;;;3.65;;
73487;SDS011;61721;42.206;25.320;2022-12-13T13:20:19;8.23;;;5.32;;
73487;SDS011;61721;42.206;25.320;2022-12-13T13:22:48;8.55;;;5.75;;
73487;SDS011;61721;42.206;25.320;2022-12-13T13:25:21;7.68;;;4.80;;
73487;SDS011;61721;42.206;25.320;2022-12-13T13:27:51;12.25;;;8.45;;
73487;SDS011;61721;42.206;25.320;2022-12-13T13:30:28;14.82;;;11.90;;
73487;SDS011;61721;42.206;25.320;2022-12-13T13:32:56;9.00;;;4.47;;
73487;SDS011;61721;42.206;25.320;2022-12-13T13:38:46;7.20;;;4.50;;
73487;SDS011;61721;42.206;25.320;2022-12-13T13:47:11;6.43;;;3.92;;
73487;SDS011;61721;42.206;25.320;2022-12-13T13:49:41;7.75;;;4.47;;
73487;SDS011;61721;42.206;25.320;2022-12-13T13:52:20;8.07;;;4.75;;
73487;SDS011;61721;42.206;25.320;2022-12-13T13:54:52;9.75;;;5.63;;
73487;SDS011;61721;42.206;25.320;2022-12-13T14:01:22;6.50;;;3.97;;
73487;SDS011;61721;42.206;25.320;2022-12-13T14:04:20;6.97;;;4.20;;
73487;SDS011;61721;42.206;25.320;2022-12-13T14:07:15;8.60;;;4.80;;
73487;SDS011;61721;42.206;25.320;2022-12-13T14:10:22;9.05;;;4.65;;
73487;SDS011;61721;42.206;25.320;2022-12-13T14:16:09;9.05;;;4.93;;
73487;SDS011;61721;42.206;25.320;2022-12-13T14:19:08;11.48;;;5.88;;
73487;SDS011;61721;42.206;25.320;2022-12-13T14:21:52;17.23;;;7.68;;
73487;SDS011;61721;42.206;25.320;2022-12-13T14:24:31;13.23;;;6.65;;
73487;SDS011;61721;42.206;25.320;2022-12-13T14:27:14;18.23;;;8.10;;
73487;SDS011;61721;42.206;25.320;2022-12-13T14:29:47;13.85;;;7.03;;
73487;SDS011;61721;42.206;25.320;2022-12-13T14:32:17;18.30;;;8.18;;
73487;SDS011;61721;42.206;25.320;2022-12-13T14:34:47;19.40;;;8.20;;
73487;SDS011;61721;42.206;25.320;2022-12-13T14:37:20;12.80;;;6.43;;
73487;SDS011;61721;42.206;25.320;2022-12-13T14:39:53;9.48;;;5.35;;
73487;SDS011;61721;42.206;25.320;2022-12-13T14:42:21;13.10;;;6.68;;
73487;SDS011;61721;42.206;25.320;2022-12-13T14:44:51;13.23;;;6.38;;
73487;SDS011;61721;42.206;25.320;2022-12-13T14:47:18;11.80;;;5.43;;
73487;SDS011;61721;42.206;25.320;2022-12-13T14:49:47;13.10;;;7.78;;
73487;SDS011;61721;42.206;25.320;2022-12-13T14:52:40;10.02;;;6.00;;
73487;SDS011;61721;42.206;25.320;2022-12-13T14:55:27;10.77;;;5.40;;
73487;SDS011;61721;42.206;25.320;2022-12-13T14:58:16;10.07;;;5.45;;
73487;SDS011;61721;42.206;25.320;2022-12-13T15:01:05;8.02;;;4.90;;
73487;SDS011;61721;42.206;25.320;2022-12-13T15:04:16;12.50;;;4.80;;
73487;SDS011;61721;42.206;25.320;2022-12-13T15:06:44;12.13;;;6.03;;
73487;SDS011;61721;42.206;25.320;2022-12-13T15:09:38;9.05;;;4.38;;
73487;SDS011;61721;42.206;25.320;2022-12-13T15:12:17;13.98;;;6.90;;
73487;SDS011;61721;42.206;25.320;2022-12-13T15:15:03;14.52;;;7.45;;
73487;SDS011;61721;42.206;25.320;2022-12-13T15:17:46;17.05;;;8.55;;
73487;SDS011;61721;42.206;25.320;2022-12-13T15:20:20;10.57;;;5.25;;
73487;SDS011;61721;42.206;25.320;2022-12-13T15:22:55;10.70;;;5.57;;